WetterOnline ( https://www.wetteronline.at )

Wetter aktuell Greifswalder Bodden

Aktuelles Wetter: Greifswalder Oie (12m)

6-stündlich | Neueste Meldungen
Ortszeit Temperatur Wetter
Di, 18.06. 14:00 22.8° C fast wolkenlos
Di, 18.06. 8:00 19.3° C wolkenlos
Di, 18.06. 2:00 17.7° C wolkenlos
Mo, 17.06. 20:00 18.7° C wolkenlos
Mo, 17.06. 14:00 19.9° C wolkenlos
Mo, 17.06. 8:00 17.7° C fast wolkenlos
Mo, 17.06. 2:00 17.2° C wolkenlos
So, 16.06. 20:00 19.3° C bedeckt
Ortszeit Temperatur Wetter
Di, 18.06. 18:30 21.6° C fast wolkenlos
Di, 18.06. 18:20 21.6° C fast wolkenlos
Di, 18.06. 18:10 21.4° C wolkenlos
Di, 18.06. 18:00 21.7° C wolkenlos
Di, 18.06. 17:50 21.7° C wolkenlos
Di, 18.06. 17:40 21.7° C wolkenlos
Di, 18.06. 17:30 21.8° C fast wolkenlos
Di, 18.06. 17:00 22.0° C leicht bewölkt
Di, 18.06. 16:30 22.2° C leicht bewölkt
Di, 18.06. 16:00 22.3° C leicht bewölkt
Di, 18.06. 15:30 22.1° C wolkig
Ortszeit Relative Feuchte Sichtweite
Di, 18.06. 14:00 74% 14 km
Di, 18.06. 8:00 74% 18 km
Di, 18.06. 2:00 78% 55 km
Mo, 17.06. 20:00 67% 25 km
Mo, 17.06. 14:00 70% 17 km
Mo, 17.06. 8:00 78% 18 km
Mo, 17.06. 2:00 78% 45 km
So, 16.06. 20:00 72% 26 km
Ortszeit Relative Feuchte Sichtweite
Di, 18.06. 18:30 73% 11 km
Di, 18.06. 18:20 73% -
Di, 18.06. 18:10 74% -
Di, 18.06. 18:00 74% 11 km
Di, 18.06. 17:50 74% -
Di, 18.06. 17:40 73% -
Di, 18.06. 17:30 74% 8 km
Di, 18.06. 17:00 76% 7 km
Di, 18.06. 16:30 74% 9 km
Di, 18.06. 16:00 74% 7 km
Di, 18.06. 15:30 76% 7 km
Ortszeit Niederschlagsmenge Niederschlagsart
Di, 18.06. 14:00 0.0 l/m2 in 6 Std. -
Di, 18.06. 8:00 0.0 l/m2 in 12 Std. -
Di, 18.06. 2:00 0.0 l/m2 in 6 Std. -
Mo, 17.06. 20:00 0.0 l/m2 in 12 Std. -
Mo, 17.06. 14:00 0.0 l/m2 in 6 Std. -
Mo, 17.06. 8:00 0.0 l/m2 in 12 Std. -
Mo, 17.06. 2:00 0.0 l/m2 in 6 Std. -
So, 16.06. 20:00 0.0 l/m2 in 12 Std. -
Ortszeit Niederschlagsmenge Niederschlagsart
Di, 18.06. 18:30 0.0 l/m2 in 1 Std. -
Di, 18.06. 18:20 keine Meldung -
Di, 18.06. 18:10 keine Meldung -
Di, 18.06. 18:00 0.0 l/m2 in 1 Std. -
Di, 18.06. 17:50 keine Meldung -
Di, 18.06. 17:40 keine Meldung -
Di, 18.06. 17:30 0.0 l/m2 in 1 Std. -
Di, 18.06. 17:00 0.0 l/m2 in 1 Std. -
Di, 18.06. 16:30 0.0 l/m2 in 1 Std. -
Di, 18.06. 16:00 0.0 l/m2 in 1 Std. -
Di, 18.06. 15:30 0.0 l/m2 in 1 Std. -
Ortszeit Stärke Spitze Richtung
km/h Bft. km/h Grad Sektor
Di, 18.06. 14:00 13 3 26 100° O
Di, 18.06. 8:00 15 3 26 110° O
Di, 18.06. 2:00 11 2 18 120° SO
Mo, 17.06. 20:00 13 3 22 100° O
Mo, 17.06. 14:00 14 3 29 20° N
Mo, 17.06. 8:00 22 4 29 260° W
Mo, 17.06. 2:00 11 2 25 250° W
So, 16.06. 20:00 22 4 40 290° W
Ortszeit Stärke Spitze Richtung
km/h Bft. km/h Grad Sektor
Di, 18.06. 18:30 22 4 31 100° O
Di, 18.06. 18:20 22 4 - 100° O
Di, 18.06. 18:10 22 4 - 100° O
Di, 18.06. 18:00 22 4 32 100° O
Di, 18.06. 17:50 22 4 - 100° O
Di, 18.06. 17:40 22 4 - 100° O
Di, 18.06. 17:30 22 4 32 100° O
Di, 18.06. 17:00 22 4 29 100° O
Di, 18.06. 16:30 18 3 29 100° O
Di, 18.06. 16:00 18 3 29 100° O
Di, 18.06. 15:30 18 3 29 100° O
Ortszeit Untergrenze Bedeckung Gattung
total tief tief mittel hoch
Di, 18.06. 14:00 9000 m 2/8 0/8 - - -
Di, 18.06. 8:00 - 0/8 0/8 - - -
Di, 18.06. 2:00 - 0/8 0/8 - - -
Mo, 17.06. 20:00 - 0/8 0/8 - - -
Mo, 17.06. 14:00 - 0/8 0/8 - - -
Mo, 17.06. 8:00 2100 m 1/8 1/8 - - -
Mo, 17.06. 2:00 - 0/8 0/8 - - -
So, 16.06. 20:00 3600 m 8/8 8/8 - - -
Ortszeit Bedeckungsgrad in Achtel und Wolkenuntergrenze
Di, 18.06. 18:30 1(2400m)
Di, 18.06. 18:20 1(2400m)
Di, 18.06. 18:10 keine Wolken
Di, 18.06. 18:00 keine Wolken
Di, 18.06. 17:50 keine Wolken
Di, 18.06. 17:40 keine Wolken
Di, 18.06. 17:30 1(9000m)
Di, 18.06. 17:00 3(10500m) 3(10500m)
Di, 18.06. 16:30 1(8100m) 6(10500m)
Di, 18.06. 16:00 1(8100m) 3(9000m) 7(10500m)
Di, 18.06. 15:30 1(8700m) 8(10500m)
Ortszeit Luftdruck NN (hPa) Tendenz (hPa in 3 Std.)
Di, 18.06. 14:00 1018 - 1,1
Di, 18.06. 8:00 1020 - 0,6
Di, 18.06. 2:00 1021 0,0
Mo, 17.06. 20:00 1022 - 0,8
Mo, 17.06. 14:00 1023 0,0
Mo, 17.06. 8:00 1022 + 0,5
Mo, 17.06. 2:00 1021 + 0,5
So, 16.06. 20:00 1020 - 0,1
Ortszeit Luftdruck NN (hPa) Tendenz (hPa in 3 Std.)
Di, 18.06. 18:30 1016 - 1,6
Di, 18.06. 18:20 1016 keine Meldung
Di, 18.06. 18:10 1016 keine Meldung
Di, 18.06. 18:00 1016 - 1,7
Di, 18.06. 17:50 1016 keine Meldung
Di, 18.06. 17:40 1016 keine Meldung
Di, 18.06. 17:30 1016 - 1,9
Di, 18.06. 17:00 1016 - 1,7
Di, 18.06. 16:30 1017 - 1,6
Di, 18.06. 16:00 1017 - 1,6
Di, 18.06. 15:30 1017 - 1,4
Ortszeit Schneehöhe (cm)
Di, 18.06. 14:00 -
Di, 18.06. 8:00 -
Di, 18.06. 2:00 -
Mo, 17.06. 20:00 -
Mo, 17.06. 14:00 -
Mo, 17.06. 8:00 -
Mo, 17.06. 2:00 -
So, 16.06. 20:00 -
Ortszeit Schneehöhe (cm)
Di, 18.06. 18:30 -
Di, 18.06. 18:20 -
Di, 18.06. 18:10 -
Di, 18.06. 18:00 -
Di, 18.06. 17:50 -
Di, 18.06. 17:40 -
Di, 18.06. 17:30 -
Di, 18.06. 17:00 -
Di, 18.06. 16:30 -
Di, 18.06. 16:00 -
Di, 18.06. 15:30 -
Link zu dieser Seite / Seite empfehlen

Das Wetter in ...